Time;durP1;ratioP1;P1;durP2;ratioP2;P2;SDS_P1;SDS_P2;PMS_P1;PMS_P2;Temp;Humidity;BMP_temperature;BMP_pressure;BME280_temperature;BME280_humidity;BME280_pressure;Samples;Min_cycle;Max_cycle;Signal;HPM_P1;HPM_P2
2022/10/07 00:01:37;;;;;;;5.57;3.00;;;;;;;18.66;47.07;100977.78;4158386;28;20244;-32
2022/10/07 00:03:39;;;;;;;8.00;3.30;;;;;;;19.30;46.24;100921.50;4151117;28;20258;-32
2022/10/07 00:05:41;;;;;;;9.60;3.07;;;;;;;19.07;46.78;100940.50;4156171;28;20966;-32
2022/10/07 00:07:43;;;;;;;6.43;2.80;;;;;;;19.62;45.76;100911.34;4146859;28;20281;-35
2022/10/07 00:09:45;;;;;;;6.83;3.40;;;;;;;19.23;46.36;100963.72;4149801;28;20873;-32
2022/10/07 00:11:47;;;;;;;6.33;2.80;;;;;;;19.59;45.58;100932.44;4155574;28;20241;-32
2022/10/07 00:13:51;;;;;;;5.53;2.90;;;;;;;19.22;46.80;100959.38;4153187;28;20228;-33
2022/10/07 00:15:53;;;;;;;6.37;3.37;;;;;;;18.85;46.94;100979.16;4154428;28;20227;-34
2022/10/07 00:17:54;;;;;;;10.53;3.50;;;;;;;18.83;47.24;100975.78;4148124;28;20237;-31
2022/10/07 00:19:56;;;;;;;6.00;3.20;;;;;;;19.09;46.94;100951.91;4154275;28;20840;-31
2022/10/07 00:21:58;;;;;;;11.93;3.73;;;;;;;18.88;47.11;100962.59;4151515;28;20228;-31
2022/10/07 00:24:01;;;;;;;7.90;3.90;;;;;;;19.06;46.80;100938.81;4144194;28;20233;-31
2022/10/07 00:26:05;;;;;;;7.27;2.87;;;;;;;19.23;46.77;100934.06;4144144;28;20259;-33
2022/10/07 00:28:07;;;;;;;9.60;3.17;;;;;;;19.14;46.84;100954.06;4147862;28;20241;-33
2022/10/07 00:30:09;;;;;;;6.73;3.37;;;;;;;19.24;46.71;100933.03;4147406;28;20237;-33
2022/10/07 00:32:11;;;;;;;8.83;3.30;;;;;;;19.49;46.30;100927.34;4148366;28;20244;-31
2022/10/07 00:34:13;;;;;;;6.80;3.23;;;;;;;19.13;46.14;100966.72;4145842;28;20244;-34
2022/10/07 00:36:24;;;;;;;7.90;3.23;;;;;;;19.50;46.08;100929.84;4147575;28;20234;-32
2022/10/07 00:38:26;;;;;;;7.13;3.03;;;;;;;19.55;45.91;100929.28;4143748;28;20229;-31
2022/10/07 00:40:28;;;;;;;6.47;3.07;;;;;;;19.64;45.78;100940.81;4153409;28;20261;-31
2022/10/07 00:42:31;;;;;;;6.10;3.30;;;;;;;19.57;45.86;100948.00;4161415;28;20324;-31
2022/10/07 00:44:45;;;;;;;7.50;3.40;;;;;;;19.39;46.44;100949.22;4156657;28;20244;-33
2022/10/07 00:46:46;;;;;;;7.40;2.97;;;;;;;19.06;46.88;100963.06;4139718;28;20609;-31
2022/10/07 00:48:48;;;;;;;6.13;3.37;;;;;;;19.25;46.61;100953.59;4158390;28;20232;-31
2022/10/07 00:50:52;;;;;;;7.73;3.47;;;;;;;19.25;46.55;100952.75;4157092;28;20256;-33
2022/10/07 00:52:57;;;;;;;9.73;3.50;;;;;;;19.76;46.06;100912.31;4151590;28;20303;-36
2022/10/07 00:55:04;;;;;;;5.50;3.13;;;;;;;19.65;45.95;100926.28;4145068;28;20268;-30
2022/10/07 00:57:06;;;;;;;4.97;3.20;;;;;;;19.24;46.50;100940.31;4157331;28;20261;-30
2022/10/07 00:59:09;;;;;;;5.43;3.30;;;;;;;19.22;46.61;100929.72;4158204;28;21019;-32
2022/10/07 01:01:11;;;;;;;5.90;3.33;;;;;;;19.94;45.78;100876.75;4154221;28;20266;-32
2022/10/07 01:03:14;;;;;;;8.57;3.30;;;;;;;19.39;46.36;100918.72;4157894;28;20270;-32
2022/10/07 01:05:16;;;;;;;7.13;3.20;;;;;;;19.75;45.86;100897.13;4153124;28;20233;-34
2022/10/07 01:07:20;;;;;;;4.47;3.13;;;;;;;19.51;46.25;100903.72;4149910;28;20812;-32
2022/10/07 01:09:22;;;;;;;5.60;2.73;;;;;;;19.70;46.17;100888.78;4154097;28;20271;-33
2022/10/07 01:11:45;;;;;;;5.43;2.90;;;;;;;19.56;46.13;100895.09;4158312;28;20261;-36
2022/10/07 01:14:15;;;;;;;9.27;3.37;;;;;;;19.73;46.03;100892.97;4155530;28;20679;-31
2022/10/07 01:16:36;;;;;;;5.00;2.60;;;;;;;19.23;46.34;100927.84;4155914;28;20309;-31
2022/10/07 01:19:03;;;;;;;8.50;2.90;;;;;;;19.30;46.49;100912.56;4154869;28;20260;-32
2022/10/07 01:21:10;;;;;;;9.90;3.70;;;;;;;19.18;46.95;100916.78;4159348;28;20274;-31
2022/10/07 01:23:55;;;;;;;7.07;2.97;;;;;;;18.89;47.91;100902.28;4159774;28;20331;-31
2022/10/07 01:26:31;;;;;;;5.20;3.00;;;;;;;18.23;48.37;100920.94;4151088;28;20259;-32
2022/10/07 01:28:40;;;;;;;7.90;3.37;;;;;;;18.03;48.86;100910.63;4148262;28;20697;-31
2022/10/07 01:30:47;;;;;;;6.77;3.10;;;;;;;17.87;49.42;100906.22;4158947;28;20231;-31
2022/10/07 01:33:12;;;;;;;8.47;3.07;;;;;;;18.23;48.80;100877.88;4161824;28;20224;-32
2022/10/07 01:35:17;;;;;;;5.90;3.00;;;;;;;17.98;48.97;100888.78;4158326;28;20240;-31
2022/10/07 01:37:23;;;;;;;8.00;3.50;;;;;;;18.52;47.98;100848.28;4159727;28;20232;-32
2022/10/07 01:39:31;;;;;;;8.20;3.40;;;;;;;18.55;47.34;100856.00;4154838;28;20311;-37
2022/10/07 01:41:35;;;;;;;10.13;3.70;;;;;;;18.23;47.96;100886.78;4156941;28;20710;-33
2022/10/07 01:43:39;;;;;;;6.67;3.43;;;;;;;18.41;48.18;100864.91;4155624;28;20245;-34
2022/10/07 01:45:41;;;;;;;10.40;3.13;;;;;;;18.45;47.95;100863.50;4162190;28;20725;-34
2022/10/07 01:47:43;;;;;;;6.97;3.07;;;;;;;18.23;48.44;100873.31;4159372;28;20231;-34
2022/10/07 01:49:45;;;;;;;7.30;3.03;;;;;;;17.90;48.64;100897.75;4154720;28;20236;-34
2022/10/07 01:52:01;;;;;;;7.63;3.50;;;;;;;17.43;49.22;100922.91;4165717;28;20244;-35
2022/10/07 01:54:39;;;;;;;6.77;3.13;;;;;;;17.79;49.06;100880.19;4156526;28;20354;-37
2022/10/07 01:57:03;;;;;;;6.80;2.70;;;;;;;18.02;48.36;100866.72;4142403;28;20322;-37
2022/10/07 01:59:30;;;;;;;5.73;3.10;;;;;;;18.27;48.38;100846.84;4158808;28;20260;-35
2022/10/07 02:01:32;;;;;;;6.63;2.97;;;;;;;18.53;47.59;100849.13;4163779;28;20328;-33
2022/10/07 02:03:36;;;;;;;6.30;3.07;;;;;;;18.35;47.84;100853.00;4162605;28;20228;-34
2022/10/07 02:05:52;;;;;;;7.33;3.40;;;;;;;18.46;47.59;100853.56;4150668;28;20237;-33
2022/10/07 02:08:19;;;;;;;7.33;3.17;;;;;;;18.88;47.47;100803.59;4157175;28;20221;-33
2022/10/07 02:10:31;;;;;;;10.63;3.17;;;;;;;18.91;47.20;100835.56;4151914;28;20304;-33
2022/10/07 02:12:51;;;;;;;5.27;2.80;;;;;;;18.89;46.98;100838.44;4157911;28;20252;-33
2022/10/07 02:15:02;;;;;;;5.20;3.30;;;;;;;18.69;47.23;100846.22;4158563;28;20315;-33
2022/10/07 02:17:19;;;;;;;7.90;2.63;;;;;;;18.64;47.44;100877.44;4161961;28;20704;-37
2022/10/07 02:19:27;;;;;;;7.10;3.30;;;;;;;18.94;46.54;100870.22;4152758;28;20295;-33
2022/10/07 02:21:34;;;;;;;8.20;2.80;;;;;;;19.17;46.22;100882.75;4156210;28;20259;-33
2022/10/07 02:23:38;;;;;;;5.03;2.90;;;;;;;19.25;46.25;100855.69;4157303;28;20237;-33
2022/10/07 02:25:47;;;;;;;8.57;3.10;;;;;;;18.97;46.71;100861.78;4158274;28;20299;-35
2022/10/07 02:27:53;;;;;;;7.37;2.70;;;;;;;19.01;46.34;100854.97;4152689;28;20303;-33
2022/10/07 02:30:02;;;;;;;5.50;3.00;;;;;;;19.20;46.20;100847.31;4174166;28;20262;-34
2022/10/07 02:32:09;;;;;;;5.63;3.00;;;;;;;18.73;46.98;100866.41;4150157;28;20323;-33
2022/10/07 02:34:16;;;;;;;8.43;3.40;;;;;;;19.05;46.79;100828.47;4157016;28;20316;-33
2022/10/07 02:36:27;;;;;;;3.73;2.43;;;;;;;18.92;46.75;100846.16;4149157;28;20246;-33
2022/10/07 02:38:29;;;;;;;5.57;2.80;;;;;;;18.66;47.03;100865.47;4150714;28;20229;-35
2022/10/07 02:40:38;;;;;;;7.57;3.37;;;;;;;18.84;47.14;100830.09;4153679;28;20257;-34
2022/10/07 02:42:53;;;;;;;6.77;3.03;;;;;;;19.01;46.57;100829.91;4150340;28;20749;-36
2022/10/07 02:45:02;;;;;;;6.57;2.60;;;;;;;18.52;46.73;100887.84;4154326;28;20255;-33
2022/10/07 02:47:32;;;;;;;9.13;2.93;;;;;;;19.15;45.91;100834.44;4154936;28;20677;-34
2022/10/07 02:49:38;;;;;;;7.03;2.60;;;;;;;19.15;46.32;100845.22;4158477;28;20263;-33
2022/10/07 02:51:53;;;;;;;6.47;2.60;;;;;;;18.86;45.75;100883.81;4149671;28;20328;-33
2022/10/07 02:53:56;;;;;;;6.40;3.00;;;;;;;19.70;45.02;100829.44;4142609;28;20252;-33
2022/10/07 02:56:00;;;;;;;6.00;2.70;;;;;;;19.00;45.66;100877.59;4143680;28;20268;-36
2022/10/07 02:58:07;;;;;;;9.73;3.00;;;;;;;19.31;45.73;100844.16;4150849;28;20315;-35
2022/10/07 03:00:09;;;;;;;8.87;3.13;;;;;;;18.85;45.83;100884.84;4155955;28;20237;-33
2022/10/07 03:02:19;;;;;;;5.93;2.80;;;;;;;19.13;45.82;100845.41;4151414;28;20299;-33
2022/10/07 03:04:21;;;;;;;7.87;3.07;;;;;;;19.25;45.00;100836.81;4147772;28;20617;-35
2022/10/07 03:06:25;;;;;;;5.87;2.60;;;;;;;18.97;45.52;100856.38;4146637;28;20320;-33
2022/10/07 03:08:27;;;;;;;10.83;3.20;;;;;;;18.57;46.43;100888.13;4155620;28;20244;-33
2022/10/07 03:10:29;;;;;;;7.03;2.43;;;;;;;18.37;46.52;100885.97;4158673;28;20241;-35
2022/10/07 03:12:30;;;;;;;5.13;2.83;;;;;;;18.39;46.59;100889.31;4145521;28;20803;-35
2022/10/07 03:14:34;;;;;;;5.30;3.20;;;;;;;18.43;46.58;100852.09;4156185;28;20323;-35
2022/10/07 03:16:36;;;;;;;6.27;3.50;;;;;;;18.65;46.21;100847.63;4156045;28;20248;-33
2022/10/07 03:18:38;;;;;;;8.80;3.80;;;;;;;18.51;46.33;100859.22;4156849;28;20249;-35
2022/10/07 03:20:39;;;;;;;7.13;3.70;;;;;;;19.05;45.34;100815.84;4163011;28;20271;-34
2022/10/07 03:22:44;;;;;;;7.50;4.13;;;;;;;18.32;46.29;100874.06;4159523;28;20260;-33
2022/10/07 03:24:46;;;;;;;7.93;3.60;;;;;;;18.27;46.46;100874.59;4154614;28;20327;-36
2022/10/07 03:26:48;;;;;;;10.13;3.40;;;;;;;18.51;45.86;100857.38;4156727;28;20322;-37
2022/10/07 03:28:49;;;;;;;8.37;3.43;;;;;;;18.41;46.39;100859.53;4163329;28;20655;-32
2022/10/07 03:30:51;;;;;;;5.30;2.63;;;;;;;18.24;46.54;100866.91;4157368;28;20688;-33
2022/10/07 03:32:53;;;;;;;7.80;3.20;;;;;;;18.11;46.18;100872.91;4156191;28;20741;-35
2022/10/07 03:34:55;;;;;;;7.00;2.90;;;;;;;18.01;46.60;100859.66;4156444;28;20228;-34
2022/10/07 03:36:58;;;;;;;11.20;2.97;;;;;;;18.42;46.29;100826.16;4150672;28;20290;-36
2022/10/07 03:39:00;;;;;;;7.20;2.87;;;;;;;18.49;45.97;100834.34;4149388;28;20331;-34
2022/10/07 03:41:03;;;;;;;8.43;3.30;;;;;;;19.29;44.87;100800.38;4156665;28;20637;-34
2022/10/07 03:43:06;;;;;;;4.97;2.50;;;;;;;18.42;45.94;100855.78;4159298;28;20630;-34
2022/10/07 03:45:08;;;;;;;5.13;2.70;;;;;;;18.59;45.53;100848.38;4158912;28;20319;-33
2022/10/07 03:47:10;;;;;;;6.80;2.73;;;;;;;18.80;45.15;100849.50;4162869;28;20316;-35
2022/10/07 03:49:12;;;;;;;7.47;2.67;;;;;;;19.22;44.54;100832.66;4162613;28;20241;-34
2022/10/07 03:51:14;;;;;;;6.20;2.97;;;;;;;17.57;46.86;100911.44;4159043;28;20252;-34
2022/10/07 03:53:16;;;;;;;8.80;3.03;;;;;;;18.19;46.08;100862.06;4163671;28;20264;-32
2022/10/07 03:55:18;;;;;;;8.97;2.70;;;;;;;18.07;45.64;100900.34;4157093;28;20315;-35
2022/10/07 03:59:40;;;;;;;5.63;2.77;;;;;;;19.16;44.34;100822.59;4162052;28;20332;-35
2022/10/07 04:01:42;;;;;;;4.20;3.10;;;;;;;18.99;44.73;100854.34;4159449;28;20314;-36
2022/10/07 04:03:45;;;;;;;8.53;3.33;;;;;;;18.32;45.06;100895.59;4158002;28;20730;-33
2022/10/07 04:05:59;;;;;;;8.20;2.80;;;;;;;19.46;43.75;100817.97;4143853;28;20248;-34
2022/10/07 04:08:03;;;;;;;7.23;3.20;;;;;;;18.36;44.99;100910.41;4160602;28;20259;-33
2022/10/07 04:10:05;;;;;;;8.10;2.50;;;;;;;18.91;44.50;100858.00;4157693;28;20717;-36
2022/10/07 04:12:07;;;;;;;5.00;2.40;;;;;;;19.00;44.86;100860.56;4161332;28;20585;-33
2022/10/07 04:14:09;;;;;;;4.77;2.40;;;;;;;19.07;44.17;100845.31;4162325;28;20235;-34
2022/10/07 04:16:11;;;;;;;6.50;2.93;;;;;;;19.19;44.27;100832.19;4158798;28;20714;-34
2022/10/07 04:18:13;;;;;;;7.03;3.07;;;;;;;18.84;44.79;100864.28;4153052;28;20726;-34
2022/10/07 04:20:15;;;;;;;8.83;3.00;;;;;;;19.24;44.10;100830.59;4162355;28;20725;-33
2022/10/07 04:22:17;;;;;;;7.37;2.73;;;;;;;19.18;44.08;100836.72;4159680;28;20232;-34
2022/10/07 04:24:19;;;;;;;6.87;2.90;;;;;;;19.09;44.31;100846.78;4159121;28;20236;-33
2022/10/07 04:26:20;;;;;;;6.70;2.87;;;;;;;19.09;44.12;100854.88;4156365;28;20737;-37
2022/10/07 04:28:24;;;;;;;6.17;2.87;;;;;;;18.84;44.87;100865.13;4159308;28;20317;-33
2022/10/07 04:30:28;;;;;;;10.50;2.90;;;;;;;19.39;44.05;100821.63;4162089;28;20244;-34
2022/10/07 04:32:30;;;;;;;6.67;2.60;;;;;;;18.67;45.27;100869.00;4162861;28;20275;-33
2022/10/07 04:34:32;;;;;;;6.07;3.00;;;;;;;18.37;45.55;100894.06;4163862;28;20320;-35
2022/10/07 04:36:33;;;;;;;8.10;2.53;;;;;;;18.67;45.82;100850.97;4155723;28;20631;-33
2022/10/07 04:38:35;;;;;;;10.10;3.03;;;;;;;18.89;44.98;100841.16;4152234;28;20249;-33
2022/10/07 04:40:42;;;;;;;5.80;3.07;;;;;;;18.64;45.24;100850.50;4145364;28;20321;-33
2022/10/07 04:45:05;;;;;;;8.37;2.80;;;;;;;19.28;44.27;100798.69;4151627;28;20322;-33
2022/10/07 04:47:06;;;;;;;4.77;2.60;;;;;;;19.36;44.21;100817.44;4158422;28;20713;-32
2022/10/07 04:49:09;;;;;;;7.67;2.77;;;;;;;19.21;43.87;100824.75;4157043;28;20236;-34
2022/10/07 04:51:11;;;;;;;7.30;2.90;;;;;;;18.93;44.54;100849.69;4156616;28;20232;-32
2022/10/07 04:53:15;;;;;;;5.70;2.90;;;;;;;19.13;44.11;100839.16;4147657;28;20316;-35
2022/10/07 04:55:16;;;;;;;5.07;2.40;;;;;;;18.95;45.15;100839.56;4154961;28;20233;-34
2022/10/07 04:57:18;;;;;;;5.70;2.77;;;;;;;19.11;44.51;100827.72;4159077;28;20319;-33
2022/10/07 04:59:20;;;;;;;7.47;3.13;;;;;;;19.19;44.48;100819.53;4149292;28;20311;-33
2022/10/07 05:01:25;;;;;;;7.73;3.27;;;;;;;19.22;44.31;100823.69;4159110;28;20291;-33
2022/10/07 05:03:28;;;;;;;10.10;3.07;;;;;;;19.26;44.01;100828.53;4146708;28;20629;-33
2022/10/07 05:05:29;;;;;;;7.10;2.87;;;;;;;19.64;43.72;100798.66;4156156;28;20261;-33
2022/10/07 05:07:31;;;;;;;6.13;3.20;;;;;;;19.23;44.67;100820.81;4151466;28;20252;-33
2022/10/07 05:09:33;;;;;;;8.93;3.30;;;;;;;19.63;43.92;100798.84;4144952;28;20263;-35
2022/10/07 05:11:36;;;;;;;8.77;3.03;;;;;;;18.99;44.37;100850.81;4154289;28;20709;-34
2022/10/07 05:13:38;;;;;;;7.83;3.10;;;;;;;19.01;45.09;100827.19;4154865;28;20237;-33
2022/10/07 05:15:58;;;;;;;9.10;2.90;;;;;;;18.99;45.37;100829.25;4159059;28;20678;-34
2022/10/07 05:18:00;;;;;;;5.27;3.07;;;;;;;19.46;43.96;100799.06;4132261;28;20221;-33
2022/10/07 05:20:03;;;;;;;5.93;3.30;;;;;;;18.97;44.45;100840.22;4134731;28;20736;-34
2022/10/07 05:22:06;;;;;;;11.27;3.23;;;;;;;19.08;44.59;100826.28;4136507;28;20324;-33
2022/10/07 05:24:07;;;;;;;7.00;3.70;;;;;;;19.37;44.45;100799.38;4134008;28;20324;-35
2022/10/07 05:26:09;;;;;;;8.60;2.73;;;;;;;18.98;44.71;100841.03;4132649;28;20261;-32
2022/10/07 05:28:13;;;;;;;8.33;3.33;;;;;;;19.14;44.83;100824.66;4133629;28;20279;-33
2022/10/07 05:30:14;;;;;;;5.77;3.20;;;;;;;19.03;44.42;100828.69;4139207;28;20244;-32
2022/10/07 05:32:17;;;;;;;9.80;2.80;;;;;;;18.93;44.79;100823.59;4140030;28;20268;-34
2022/10/07 05:34:19;;;;;;;8.40;3.67;;;;;;;19.18;44.29;100811.63;4140673;28;20238;-32
2022/10/07 05:36:20;;;;;;;11.47;3.43;;;;;;;19.20;44.26;100815.81;4137462;28;20782;-33
2022/10/07 05:38:22;;;;;;;10.93;3.50;;;;;;;19.33;43.92;100799.78;4138270;28;20287;-36
2022/10/07 05:40:24;;;;;;;7.73;3.13;;;;;;;19.02;44.60;100812.72;4136532;28;20304;-33
2022/10/07 05:42:26;;;;;;;5.20;2.77;;;;;;;19.32;44.02;100792.72;4139831;28;20264;-33
2022/10/07 05:44:30;;;;;;;6.67;3.20;;;;;;;19.24;44.38;100803.63;4138800;28;20968;-35
2022/10/07 05:46:32;;;;;;;9.67;3.60;;;;;;;19.20;44.32;100817.66;4136472;28;20308;-32
2022/10/07 05:48:35;;;;;;;8.97;3.40;;;;;;;19.22;44.44;100816.47;4135731;28;20328;-33
2022/10/07 05:50:40;;;;;;;6.27;2.90;;;;;;;18.82;44.96;100829.44;4134600;28;20295;-33
2022/10/07 05:52:44;;;;;;;9.47;3.23;;;;;;;19.25;44.36;100799.06;4131219;28;20861;-34
2022/10/07 05:54:45;;;;;;;7.97;3.37;;;;;;;18.88;44.93;100817.94;4130497;28;20242;-34
2022/10/07 05:56:47;;;;;;;9.93;3.00;;;;;;;19.22;44.29;100799.44;4132895;28;20250;-33
2022/10/07 05:58:51;;;;;;;9.40;3.30;;;;;;;19.20;44.11;100809.56;4140400;28;20249;-34
2022/10/07 06:00:55;;;;;;;9.30;3.53;;;;;;;19.00;44.36;100818.28;4135921;28;20876;-35
2022/10/07 06:03:01;;;;;;;7.40;3.00;;;;;;;18.83;44.54;100809.59;4138130;28;20286;-40
2022/10/07 06:05:03;;;;;;;5.53;3.20;;;;;;;18.74;44.90;100829.50;4151399;28;20275;-33
2022/10/07 06:07:05;;;;;;;10.70;3.43;;;;;;;18.89;44.18;100813.38;4145937;28;20722;-34
2022/10/07 06:13:51;;;;;;;12.13;3.60;;;;;;;18.62;45.10;100821.06;4148158;28;20276;-34
2022/10/07 06:15:53;;;;;;;6.33;3.50;;;;;;;19.27;44.08;100786.25;4156035;28;20248;-34
2022/10/07 06:17:55;;;;;;;8.80;3.23;;;;;;;19.14;44.08;100801.22;3252801;28;10000605;-33
2022/10/07 06:19:56;;;;;;;7.70;3.93;;;;;;;18.70;44.91;100844.41;4152484;28;20290;-34
2022/10/07 06:21:58;;;;;;;6.40;3.17;;;;;;;18.64;44.68;100840.56;4161305;28;20304;-33
2022/10/07 06:24:03;;;;;;;9.17;3.71;;;;;;;18.51;44.73;100853.84;3386495;28;10001913;-33
2022/10/07 06:26:07;;;;;;;8.00;3.37;;;;;;;18.46;45.03;100840.09;4153713;28;20886;-34
2022/10/07 06:28:09;;;;;;;7.33;3.30;;;;;;;18.63;44.75;100820.06;4146669;28;20378;-33
2022/10/07 06:30:12;;;;;;;6.03;3.13;;;;;;;18.98;44.61;100785.28;4146345;28;20237;-33
2022/10/07 06:32:13;;;;;;;14.37;3.97;;;;;;;18.98;44.30;100798.75;4142748;28;20668;-33
2022/10/07 06:34:15;;;;;;;8.17;3.97;;;;;;;18.69;44.46;100824.69;4143835;28;20263;-34
2022/10/07 06:36:17;;;;;;;9.87;3.87;;;;;;;19.00;44.30;100795.88;4155404;28;20228;-33
2022/10/07 06:38:19;;;;;;;8.90;3.90;;;;;;;18.95;44.18;100807.25;4147246;28;20866;-33
2022/10/07 06:40:21;;;;;;;6.47;3.70;;;;;;;18.54;44.96;100840.00;4119496;28;20324;-40
2022/10/07 06:42:22;;;;;;;10.90;3.80;;;;;;;19.17;44.10;100781.16;3300646;28;10000258;-34
2022/10/07 06:44:27;;;;;;;10.53;3.33;;;;;;;19.22;44.24;100784.13;4141881;28;20316;-39
2022/10/07 06:46:28;;;;;;;4.97;3.17;;;;;;;18.64;44.92;100828.97;3270825;28;10000783;-33
2022/10/07 06:48:32;;;;;;;7.90;3.57;;;;;;;18.68;44.64;100831.09;4165527;28;20240;-33
2022/10/07 06:50:34;;;;;;;11.73;4.10;;;;;;;18.84;43.95;100824.69;4155436;28;20257;-34
2022/10/07 06:52:35;;;;;;;8.47;3.80;;;;;;;18.80;44.23;100817.19;4160213;28;20288;-37
2022/10/07 06:54:43;;;;;;;6.73;3.40;;;;;;;19.00;44.31;100804.81;3260906;28;10000355;-36
2022/10/07 06:56:45;;;;;;;7.80;3.60;;;;;;;18.85;44.08;100823.69;4165872;28;20320;-34
2022/10/07 06:58:48;;;;;;;8.65;3.63;;;;;;;18.02;45.61;100861.34;3773414;28;10001163;-37
2022/10/07 07:00:51;;;;;;;9.93;3.77;;;;;;;18.32;45.17;100836.38;3627987;28;10000114;-35
2022/10/07 07:02:53;;;;;;;6.30;3.10;;;;;;;18.00;45.98;100847.25;4150172;28;20765;-31
2022/10/07 07:04:56;;;;;;;8.63;3.83;;;;;;;18.38;44.82;100838.34;4155682;28;20768;-32
2022/10/07 07:06:58;;;;;;;5.70;3.20;;;;;;;18.71;45.16;100805.63;4152123;28;20263;-33
2022/10/07 07:09:03;;;;;;;7.77;3.00;;;;;;;18.82;44.60;100797.13;4152514;28;20323;-33
2022/10/07 07:11:34;;;;;;;9.23;3.50;;;;;;;19.02;44.55;100794.66;4153123;28;20290;-33
2022/10/07 07:13:29;;;;;;;6.40;3.73;;;;;;;18.99;43.60;100813.91;4151469;28;20260;-32
2022/10/07 07:15:31;;;;;;;7.40;3.80;;;;;;;18.76;44.13;100831.00;4154295;28;20319;-32
2022/10/07 07:17:33;;;;;;;11.03;3.60;;;;;;;18.20;44.98;100858.34;4151266;28;20255;-34
2022/10/07 07:19:34;;;;;;;14.13;3.63;;;;;;;18.77;45.22;100800.34;4154928;28;20350;-34
2022/10/07 07:21:37;;;;;;;9.03;3.43;;;;;;;18.77;45.16;100800.34;4156558;28;20319;-34
2022/10/07 07:23:38;;;;;;;6.33;3.70;;;;;;;18.76;44.59;100820.25;4156889;28;20307;-32
2022/10/07 07:25:44;;;;;;;5.57;3.27;;;;;;;19.30;43.85;100788.53;4158025;28;20327;-36
2022/10/07 07:27:46;;;;;;;9.67;3.63;;;;;;;18.38;44.27;100863.41;4157205;28;20228;-37
2022/10/07 07:29:54;;;;;;;7.23;3.30;;;;;;;18.80;44.49;100822.56;4154982;28;20235;-37
2022/10/07 07:31:57;;;;;;;8.17;3.43;;;;;;;18.91;44.65;100809.47;4158671;28;20287;-33
2022/10/07 07:34:01;;;;;;;7.83;3.50;;;;;;;18.50;44.96;100842.25;4156502;28;20260;-33
2022/10/07 07:36:29;;;;;;;10.37;3.67;;;;;;;18.93;44.62;100783.16;4134276;28;20465;-33
2022/10/07 07:38:59;;;;;;;9.70;3.67;;;;;;;18.86;44.84;100813.75;4159793;28;20228;-32
2022/10/07 07:41:28;;;;;;;7.30;3.50;;;;;;;18.78;44.86;100822.75;4154023;28;20316;-32
2022/10/07 07:43:57;;;;;;;7.50;3.80;;;;;;;18.47;45.41;100825.63;4141623;28;20274;-32
2022/10/07 07:46:26;;;;;;;7.93;3.63;;;;;;;18.54;45.24;100807.69;4158453;28;20670;-34
2022/10/07 07:48:53;;;;;;;9.73;3.90;;;;;;;18.44;45.75;100809.81;4160579;28;20285;-33
2022/10/07 07:51:19;;;;;;;7.60;3.60;;;;;;;18.75;45.06;100809.66;4162493;28;20231;-32
2022/10/07 07:53:48;;;;;;;11.50;4.13;;;;;;;18.77;44.62;100815.69;4158456;28;20232;-34
2022/10/07 07:56:13;;;;;;;10.20;3.30;;;;;;;18.74;45.13;100808.78;4149365;28;20236;-32
2022/10/07 07:58:40;;;;;;;9.50;3.70;;;;;;;18.72;44.82;100818.91;4151382;28;20236;-34
2022/10/07 08:01:10;;;;;;;9.13;3.50;;;;;;;18.93;44.27;100801.19;4141916;28;20237;-35
2022/10/07 08:03:36;;;;;;;9.73;4.00;;;;;;;19.14;43.98;100793.13;4139580;28;20624;-32
2022/10/07 08:06:03;;;;;;;9.40;3.90;;;;;;;18.97;44.75;100796.28;4139591;28;20308;-35
2022/10/07 08:08:30;;;;;;;7.93;4.00;;;;;;;18.15;45.88;100862.63;4154511;28;20307;-38
2022/10/07 08:10:57;;;;;;;8.30;3.93;;;;;;;18.34;46.49;100808.25;4161865;28;20256;-31
2022/10/07 08:13:23;;;;;;;4.20;2.80;;;;;;;18.76;45.76;100771.75;4154651;28;20403;-34
2022/10/07 08:15:48;;;;;;;8.20;4.07;;;;;;;19.17;45.19;100761.44;4142340;28;20232;-33
2022/10/07 08:18:16;;;;;;;7.67;3.27;;;;;;;19.37;45.01;100745.44;4136388;28;20295;-32
2022/10/07 08:20:42;;;;;;;8.10;3.33;;;;;;;19.05;45.33;100794.28;4161791;28;20721;-33
2022/10/07 08:23:07;;;;;;;10.30;3.27;;;;;;;18.95;45.04;100791.91;4147478;28;20282;-32
2022/10/07 08:25:34;;;;;;;10.50;3.93;;;;;;;18.90;45.64;100809.66;4156734;28;20314;-33
2022/10/07 08:28:00;;;;;;;10.33;4.03;;;;;;;19.35;45.47;100756.44;4150449;28;20537;-33
2022/10/07 08:30:25;;;;;;;7.57;4.47;;;;;;;18.95;46.32;100782.97;4171130;28;20261;-32
2022/10/07 08:32:51;;;;;;;13.00;4.33;;;;;;;19.35;45.30;100761.00;4155232;28;20263;-34
2022/10/07 08:35:17;;;;;;;6.77;3.23;;;;;;;18.75;46.26;100813.16;4153236;28;20284;-32
2022/10/07 08:37:43;;;;;;;11.03;4.20;;;;;;;19.43;44.68;100744.69;4157104;28;20300;-33
2022/10/07 08:40:16;;;;;;;9.63;3.40;;;;;;;18.94;46.26;100743.56;4158385;28;20239;-34
2022/10/07 08:42:43;;;;;;;8.43;3.40;;;;;;;18.88;46.46;100745.19;4158237;28;20263;-35
2022/10/07 08:45:22;;;;;;;5.57;3.47;;;;;;;19.89;44.74;100698.38;4154141;28;20243;-34
2022/10/07 08:47:56;;;;;;;10.73;3.67;;;;;;;20.20;44.08;100716.84;3927365;28;10001056;-35
2022/10/07 08:50:31;;;;;;;9.60;4.00;;;;;;;19.70;44.79;100767.38;3633983;28;10001749;-37
2022/10/07 08:53:02;;;;;;;6.83;3.23;;;;;;;20.14;43.97;100738.41;4160041;28;20235;-32
2022/10/07 08:55:53;;;;;;;10.00;3.87;;;;;;;20.13;44.27;100717.84;4158143;28;20244;-37
2022/10/07 08:58:45;;;;;;;11.00;4.47;;;;;;;20.14;44.11;100712.22;4166483;28;20272;-34
2022/10/07 09:01:35;;;;;;;10.50;4.07;;;;;;;20.71;43.66;100683.22;4148659;28;20247;-34
2022/10/07 09:04:13;;;;;;;7.50;3.60;;;;;;;20.56;44.03;100699.59;4148625;28;20278;-34
2022/10/07 09:06:55;;;;;;;8.57;3.73;;;;;;;20.66;44.23;100695.69;4144038;28;20623;-36
2022/10/07 09:09:59;;;;;;;7.93;3.70;;;;;;;20.05;44.51;100732.34;4145212;28;20616;-33
2022/10/07 09:12:50;;;;;;;7.20;3.30;;;;;;;20.00;43.84;100732.94;4153105;28;20224;-33
2022/10/07 09:15:22;;;;;;;9.33;3.43;;;;;;;20.70;43.73;100686.13;4160399;28;20343;-32
2022/10/07 09:17:57;;;;;;;8.93;2.90;;;;;;;20.23;44.24;100732.66;4137734;28;20241;-32
2022/10/07 09:20:33;;;;;;;6.37;3.40;;;;;;;20.43;44.22;100708.50;4138065;28;20263;-33
2022/10/07 09:23:02;;;;;;;9.27;3.30;;;;;;;20.34;44.44;100708.84;4158850;28;20234;-35
2022/10/07 09:25:30;;;;;;;8.90;3.37;;;;;;;20.34;44.63;100704.28;4140003;28;20253;-34
2022/10/07 09:27:56;;;;;;;6.60;3.43;;;;;;;20.20;44.54;100708.75;4154760;28;20289;-32
2022/10/07 09:30:24;;;;;;;5.87;2.93;;;;;;;19.82;45.51;100721.78;4155943;28;20591;-32
2022/10/07 09:32:53;;;;;;;6.03;3.17;;;;;;;20.60;44.17;100673.00;4153044;28;20227;-33
2022/10/07 09:35:23;;;;;;;9.53;3.37;;;;;;;20.33;44.46;100699.06;4144974;28;20244;-35
2022/10/07 09:38:09;;;;;;;9.30;3.63;;;;;;;20.66;44.49;100658.69;4136738;28;20241;-33
2022/10/07 09:43:29;;;;;;;8.03;3.20;;;;;;;20.84;43.88;100657.25;4153417;28;20370;-32
2022/10/07 09:45:56;;;;;;;10.23;3.13;;;;;;;21.45;43.55;100635.47;4155514;28;20226;-33
2022/10/07 09:48:27;;;;;;;7.23;3.83;;;;;;;20.97;44.17;100671.69;4154142;28;20308;-32
2022/10/07 09:54:31;;;;;;;8.10;3.93;;;;;;;21.30;44.69;100630.28;4167810;28;20231;-32
2022/10/07 09:56:59;;;;;;;9.33;3.97;;;;;;;20.54;44.76;100708.94;4161236;28;20228;-34
2022/10/07 09:59:28;;;;;;;7.90;3.43;;;;;;;21.51;43.68;100617.56;4157935;28;20274;-32
2022/10/07 10:01:58;;;;;;;9.13;3.97;;;;;;;21.05;44.48;100665.22;4155040;28;20617;-32
2022/10/07 10:04:52;;;;;;;8.73;4.10;;;;;;;21.67;42.96;100619.88;4156242;28;20231;-33
2022/10/07 10:07:33;;;;;;;6.30;3.70;;;;;;;21.49;44.26;100630.47;4153827;28;20236;-32
2022/10/07 10:10:04;;;;;;;6.30;3.30;;;;;;;21.56;43.59;100620.47;4157620;28;20787;-31
2022/10/07 10:12:36;;;;;;;7.37;3.10;;;;;;;22.02;42.76;100614.16;4158437;28;20666;-33
2022/10/07 10:15:28;;;;;;;7.67;3.30;;;;;;;21.55;44.35;100626.94;4141229;28;20244;-31
2022/10/07 10:17:56;;;;;;;8.63;3.40;;;;;;;22.36;42.35;100586.94;4142507;28;20263;-33
2022/10/07 10:34:19;;;;;;;9.07;3.50;;;;;;;21.02;45.55;100656.69;4160864;28;20312;-33
2022/10/07 10:37:00;;;;;;;9.80;3.37;;;;;;;22.47;43.54;100561.84;4155859;28;20231;-31
2022/10/07 10:40:18;;;;;;;10.63;3.87;;;;;;;22.14;43.46;100589.94;4158758;28;20286;-31
2022/10/07 10:43:03;;;;;;;8.77;3.73;;;;;;;21.95;44.42;100588.13;4101078;28;20293;-34